createdAt,value
2022-12-13T00:01:59.003Z,15.80
2022-12-13T00:04:26.658Z,16.35
2022-12-13T00:06:54.344Z,20.98
2022-12-13T00:09:22.053Z,14.95
2022-12-13T00:11:50.332Z,18.90
2022-12-13T00:14:17.938Z,12.88
2022-12-13T00:16:47.247Z,15.35
2022-12-13T00:19:14.794Z,16.60
2022-12-13T00:21:41.875Z,13.00
2022-12-13T00:24:08.872Z,15.38
2022-12-13T00:26:36.671Z,18.48
2022-12-13T00:29:06.338Z,16.50
2022-12-13T00:34:20.671Z,18.35
2022-12-13T00:36:48.485Z,16.55
2022-12-13T00:39:16.896Z,13.20
2022-12-13T00:41:47.567Z,19.67
2022-12-13T00:44:15.296Z,20.38
2022-12-13T00:46:43.081Z,17.17
2022-12-13T00:49:13.261Z,17.27
2022-12-13T00:51:40.647Z,17.88
2022-12-13T00:54:07.938Z,17.17
2022-12-13T00:56:34.943Z,13.52
2022-12-13T00:59:02.376Z,14.85
2022-12-13T01:01:32.877Z,15.80
2022-12-13T01:04:02.738Z,18.98
2022-12-13T01:06:36.357Z,16.88
2022-12-13T01:09:05.647Z,14.65
2022-12-13T01:11:32.917Z,24.80
2022-12-13T01:13:59.880Z,15.82
2022-12-13T01:16:26.827Z,15.30
2022-12-13T01:18:53.841Z,20.55
2022-12-13T01:21:22.195Z,18.73
2022-12-13T01:23:50.394Z,13.98
2022-12-13T01:26:21.457Z,17.33
2022-12-13T01:28:49.484Z,18.00
2022-12-13T01:31:20.029Z,16.50
2022-12-13T01:33:48.706Z,16.60
2022-12-13T01:36:19.663Z,21.63
2022-12-13T01:38:58.495Z,17.33
2022-12-13T01:41:28.877Z,16.63
2022-12-13T01:44:01.428Z,16.60
2022-12-13T01:46:33.772Z,18.17
2022-12-13T01:49:19.602Z,21.40
2022-12-13T01:52:06.630Z,17.20
2022-12-13T01:54:46.415Z,21.02
2022-12-13T01:57:18.112Z,12.32
2022-12-13T01:59:47.624Z,17.98
2022-12-13T02:02:15.673Z,18.60
2022-12-13T02:04:51.968Z,16.83
2022-12-13T02:07:23.497Z,19.00
2022-12-13T02:09:56.414Z,20.43
2022-12-13T02:12:30.782Z,20.65
2022-12-13T02:15:05.277Z,22.52
2022-12-13T02:17:53.542Z,20.35
2022-12-13T02:20:54.263Z,18.98
2022-12-13T02:23:39.381Z,13.18
2022-12-13T02:26:31.390Z,17.25
2022-12-13T06:26:35.855Z,4.90
2022-12-13T06:29:02.027Z,6.30
2022-12-13T06:31:28.187Z,11.73
2022-12-13T06:33:54.535Z,11.07
2022-12-13T06:36:25.401Z,13.73
2022-12-13T06:38:55.612Z,15.32
2022-12-13T06:41:26.463Z,61.95
2022-12-13T06:43:58.717Z,21.00
2022-12-13T06:46:25.927Z,15.43
2022-12-13T06:48:53.571Z,15.05
2022-12-13T06:51:33.080Z,13.18
2022-12-13T06:54:02.967Z,13.02
2022-12-13T06:56:40.605Z,13.57
2022-12-13T06:59:12.553Z,12.18
2022-12-13T07:01:39.519Z,9.60
2022-12-13T07:04:30.156Z,10.43
2022-12-13T07:06:55.146Z,10.00
2022-12-13T07:09:29.072Z,13.70
2022-12-13T07:11:56.708Z,9.43
2022-12-13T07:14:40.467Z,13.20
2022-12-13T07:17:11.859Z,10.98
2022-12-13T07:19:39.280Z,12.73
2022-12-13T07:22:06.952Z,11.77
2022-12-13T07:24:37.773Z,11.52
2022-12-13T07:27:05.348Z,16.10
2022-12-13T07:29:32.672Z,12.32
2022-12-13T07:32:01.462Z,14.82
2022-12-13T07:34:32.383Z,12.73
2022-12-13T07:37:03.580Z,12.00
2022-12-13T07:39:36.864Z,9.25
2022-12-13T07:42:05.316Z,13.88
2022-12-13T07:44:33.882Z,13.13
2022-12-13T07:49:08.974Z,10.57
2022-12-13T07:51:36.352Z,12.20
2022-12-13T07:54:06.759Z,7.97
2022-12-13T07:56:35.673Z,9.82
2022-12-13T07:59:03.399Z,13.35
2022-12-13T08:01:35.229Z,11.98
2022-12-13T08:04:04.320Z,9.50
2022-12-13T08:06:36.239Z,11.50
2022-12-13T08:09:04.496Z,11.52
2022-12-13T08:11:31.936Z,11.00
2022-12-13T08:13:59.209Z,9.32
2022-12-13T08:16:29.353Z,8.23
2022-12-13T08:19:02.970Z,11.27
2022-12-13T08:21:56.671Z,8.10
2022-12-13T08:24:26.797Z,9.75
2022-12-13T08:26:55.447Z,11.57
2022-12-13T08:29:33.890Z,9.98
2022-12-13T08:32:08.681Z,9.90
2022-12-13T08:34:36.108Z,11.38
2022-12-13T08:37:04.325Z,11.90
2022-12-13T08:39:35.585Z,9.00
2022-12-13T08:42:17.148Z,13.48
2022-12-13T08:44:48.224Z,12.23
2022-12-13T08:47:23.015Z,11.98
2022-12-13T08:50:02.517Z,11.52
2022-12-13T08:52:39.407Z,11.65
2022-12-13T08:55:13.855Z,9.85
2022-12-13T08:57:42.922Z,10.80
2022-12-13T09:00:16.738Z,13.77
2022-12-13T09:02:44.695Z,15.88
2022-12-13T09:05:32.226Z,10.13
2022-12-13T09:08:22.967Z,12.80
2022-12-13T09:11:11.383Z,13.40
2022-12-13T09:13:50.024Z,15.57
2022-12-13T09:16:23.132Z,12.85
2022-12-13T09:18:54.800Z,14.77
2022-12-13T09:21:31.603Z,12.77
2022-12-13T09:24:01.886Z,15.00
2022-12-13T09:26:29.953Z,13.57
2022-12-13T09:29:10.523Z,9.93
2022-12-13T09:31:40.476Z,11.32
2022-12-13T09:34:08.836Z,11.82
2022-12-13T09:36:35.765Z,13.27
2022-12-13T09:39:03.630Z,12.95
2022-12-13T09:42:01.431Z,10.00
2022-12-13T09:44:42.721Z,12.75
2022-12-13T09:47:34.948Z,14.23
2022-12-13T09:50:08.576Z,14.25
2022-12-13T09:52:44.635Z,12.52
2022-12-13T09:55:30.257Z,11.05
2022-12-13T09:57:59.322Z,15.43
2022-12-13T10:00:35.887Z,12.63
2022-12-13T10:03:03.828Z,9.45
2022-12-13T10:05:39.818Z,13.07
2022-12-13T10:08:11.647Z,10.40
2022-12-13T10:10:38.861Z,9.95
2022-12-13T10:13:42.801Z,10.98
2022-12-13T10:16:14.040Z,10.93
2022-12-13T10:18:43.117Z,13.25
2022-12-13T15:00:26.366Z,12.60
2022-12-13T15:02:55.741Z,12.05
2022-12-13T15:05:50.189Z,17.50
2022-12-13T15:08:20.367Z,11.88
2022-12-13T15:11:02.160Z,24.02
2022-12-13T15:13:47.222Z,23.35
2022-12-13T15:16:29.694Z,22.40
2022-12-13T15:19:31.116Z,18.13
2022-12-13T15:22:07.704Z,14.40
2022-12-13T15:24:48.738Z,15.88
2022-12-13T15:27:27.313Z,13.75
2022-12-13T15:29:55.246Z,16.52
2022-12-13T15:32:25.399Z,12.13
2022-12-13T15:34:53.161Z,12.75
2022-12-13T15:37:30.261Z,11.25
2022-12-13T15:40:07.989Z,11.48
2022-12-13T15:42:39.228Z,14.23
2022-12-13T15:45:17.656Z,13.77
2022-12-13T15:47:47.614Z,13.85
2022-12-13T15:50:50.439Z,13.02
2022-12-13T15:53:27.262Z,11.85
2022-12-13T15:55:54.780Z,10.10
2022-12-13T15:58:33.464Z,10.52
2022-12-13T16:01:06.016Z,10.45
2022-12-13T16:03:43.506Z,15.15
2022-12-13T16:06:18.072Z,10.98
2022-12-13T16:08:49.631Z,8.57
2022-12-13T16:11:31.890Z,8.27
2022-12-13T16:14:30.706Z,10.35
2022-12-13T16:17:08.335Z,9.93
2022-12-13T16:19:37.210Z,5.85
2022-12-13T16:22:08.685Z,7.70
2022-12-13T16:24:38.382Z,4.07
2022-12-13T16:27:08.497Z,5.57
2022-12-13T16:29:36.146Z,5.05
2022-12-13T16:32:03.508Z,11.50
2022-12-13T16:34:36.136Z,41.30
2022-12-13T16:37:03.597Z,60.75
2022-12-13T16:39:36.246Z,50.65
2022-12-13T16:42:03.301Z,32.55
2022-12-13T16:44:37.570Z,26.10
2022-12-13T16:47:12.560Z,41.80
2022-12-13T16:49:43.875Z,16.80
2022-12-13T16:52:10.908Z,15.95
2022-12-13T16:54:38.085Z,18.17
2022-12-13T16:57:05.030Z,25.58
2022-12-13T16:59:33.382Z,32.72
2022-12-13T17:02:00.536Z,16.13
2022-12-13T17:04:29.095Z,28.83
2022-12-13T17:06:57.138Z,14.27
2022-12-13T17:09:25.683Z,23.15
2022-12-13T17:11:54.404Z,21.73
2022-12-13T17:14:21.762Z,18.10
2022-12-13T17:16:48.840Z,10.93
2022-12-13T17:19:17.568Z,12.27
2022-12-13T17:21:45.420Z,15.20
2022-12-13T17:24:13.155Z,20.45
2022-12-13T17:26:41.609Z,23.38
2022-12-13T17:29:24.799Z,24.17
2022-12-13T17:31:53.611Z,14.20
2022-12-13T17:34:21.592Z,11.88
2022-12-13T17:36:49.127Z,20.33
2022-12-13T17:39:18.792Z,12.15
2022-12-13T17:41:54.470Z,9.77
2022-12-13T17:44:26.613Z,13.88
2022-12-13T17:46:55.677Z,10.13
2022-12-13T17:49:23.791Z,14.63
2022-12-13T17:51:54.380Z,7.38
2022-12-13T17:54:24.018Z,10.93
2022-12-13T17:56:52.246Z,9.77
2022-12-13T17:59:20.188Z,7.35
2022-12-13T18:01:47.907Z,16.95
2022-12-13T18:04:15.492Z,8.63
2022-12-13T18:06:42.872Z,9.68
2022-12-13T18:09:14.294Z,12.13
2022-12-13T18:11:41.521Z,12.13
2022-12-13T20:44:59.706Z,0.30
2022-12-13T20:47:27.486Z,4.22
2022-12-13T20:49:53.493Z,1.88
2022-12-13T20:52:20.736Z,2.60
2022-12-13T20:54:48.795Z,3.55
2022-12-13T20:57:19.036Z,3.17
2022-12-13T20:59:49.499Z,4.28
2022-12-13T21:02:18.641Z,1.95
2022-12-13T21:04:50.637Z,3.78
2022-12-13T21:07:38.395Z,6.00
2022-12-13T21:10:11.727Z,3.85
2022-12-13T21:12:39.195Z,3.88
2022-12-13T21:15:06.692Z,5.68
2022-12-13T21:17:33.893Z,4.10
2022-12-13T21:20:00.866Z,4.72
2022-12-13T21:22:27.934Z,4.65
2022-12-13T21:24:55.588Z,3.63
2022-12-13T21:27:22.846Z,3.03
2022-12-13T21:29:50.110Z,3.65
2022-12-13T21:32:17.257Z,6.07
2022-12-13T21:34:44.463Z,5.63
2022-12-13T21:37:11.319Z,3.13
2022-12-13T21:39:38.368Z,7.50
2022-12-13T21:42:05.581Z,3.63
2022-12-13T21:44:32.917Z,3.92
2022-12-13T21:47:15.352Z,6.05
2022-12-13T21:49:48.752Z,6.78
2022-12-13T21:52:16.811Z,6.40
2022-12-13T21:54:43.734Z,5.95
2022-12-13T21:57:29.540Z,5.22
2022-12-13T21:59:56.489Z,9.18
2022-12-13T22:02:23.352Z,10.35
2022-12-13T22:04:54.410Z,5.70
2022-12-13T22:07:22.674Z,7.85
2022-12-13T22:09:50.413Z,6.22
2022-12-13T22:12:20.400Z,6.60
2022-12-13T22:14:47.803Z,7.75
2022-12-13T22:17:14.997Z,4.97
2022-12-13T22:19:42.161Z,10.38
2022-12-13T22:22:09.530Z,7.82
2022-12-13T22:24:36.336Z,6.53
2022-12-13T22:27:04.114Z,7.38
2022-12-13T22:29:31.088Z,7.25
2022-12-13T22:31:57.882Z,5.10
2022-12-13T22:34:24.705Z,8.38
2022-12-13T22:36:52.264Z,8.15
2022-12-13T22:39:21.208Z,8.55
2022-12-13T22:41:49.162Z,7.15
2022-12-13T22:44:17.439Z,8.75
2022-12-13T22:46:44.512Z,7.63
2022-12-13T22:49:12.194Z,7.28
2022-12-13T22:51:39.562Z,5.50
2022-12-13T22:54:06.964Z,5.43
2022-12-13T22:56:34.061Z,5.93
2022-12-13T22:59:02.324Z,5.65
2022-12-13T23:01:32.404Z,7.68
2022-12-13T23:04:00.098Z,4.88
2022-12-13T23:06:29.879Z,4.63
2022-12-13T23:09:01.403Z,7.95
2022-12-13T23:11:48.457Z,7.30
2022-12-13T23:14:18.906Z,4.43
2022-12-13T23:16:47.155Z,6.03
2022-12-13T23:22:05.306Z,8.20
2022-12-13T23:24:32.430Z,7.35
2022-12-13T23:26:59.469Z,4.97
2022-12-13T23:29:26.561Z,6.38
2022-12-13T23:31:53.773Z,6.20
2022-12-13T23:34:20.680Z,7.07
2022-12-13T23:36:47.583Z,5.30
2022-12-13T23:39:14.665Z,5.38
2022-12-13T23:41:41.963Z,5.28
2022-12-13T23:44:10.619Z,6.25
2022-12-13T23:46:38.386Z,7.57
2022-12-13T23:49:07.336Z,5.20
2022-12-13T23:51:34.806Z,7.40
2022-12-13T23:54:01.914Z,5.45
2022-12-13T23:56:29.654Z,6.00
2022-12-13T23:58:57.102Z,8.98
